sensor_id;sensor_type;location;lat;lon;timestamp;temperature;humidity
65573;SHT30;52214;50.940;13.996;2022-11-20T00:01:13;-6.94;99.99
65573;SHT30;52214;50.940;13.996;2022-11-20T00:03:39;-7.06;99.99
65573;SHT30;52214;50.940;13.996;2022-11-20T00:06:08;-7.03;99.99
65573;SHT30;52214;50.940;13.996;2022-11-20T00:08:34;-7.02;99.99
65573;SHT30;52214;50.940;13.996;2022-11-20T00:11:08;-7.05;99.99
65573;SHT30;52214;50.940;13.996;2022-11-20T00:13:34;-6.98;99.99
65573;SHT30;52214;50.940;13.996;2022-11-20T00:16:02;-6.88;99.99
65573;SHT30;52214;50.940;13.996;2022-11-20T00:18:28;-6.71;99.99
65573;SHT30;52214;50.940;13.996;2022-11-20T00:21:03;-6.63;99.99
65573;SHT30;52214;50.940;13.996;2022-11-20T00:23:29;-6.70;99.99
65573;SHT30;52214;50.940;13.996;2022-11-20T00:25:54;-6.61;99.99
65573;SHT30;52214;50.940;13.996;2022-11-20T00:28:20;-6.61;99.99
65573;SHT30;52214;50.940;13.996;2022-11-20T00:30:46;-6.70;99.99
65573;SHT30;52214;50.940;13.996;2022-11-20T00:33:11;-6.84;99.99
65573;SHT30;52214;50.940;13.996;2022-11-20T00:35:36;-6.81;99.99
65573;SHT30;52214;50.940;13.996;2022-11-20T00:38:02;-6.88;99.99
65573;SHT30;52214;50.940;13.996;2022-11-20T00:40:28;-7.05;99.99
65573;SHT30;52214;50.940;13.996;2022-11-20T00:42:53;-7.06;99.99
65573;SHT30;52214;50.940;13.996;2022-11-20T00:45:19;-7.01;99.99
65573;SHT30;52214;50.940;13.996;2022-11-20T00:47:44;-7.02;99.99
65573;SHT30;52214;50.940;13.996;2022-11-20T00:50:09;-7.03;99.99
65573;SHT30;52214;50.940;13.996;2022-11-20T00:52:35;-7.03;99.99
65573;SHT30;52214;50.940;13.996;2022-11-20T00:55:00;-7.15;99.99
65573;SHT30;52214;50.940;13.996;2022-11-20T00:57:26;-7.26;99.99
65573;SHT30;52214;50.940;13.996;2022-11-20T00:59:51;-7.39;99.99
65573;SHT30;52214;50.940;13.996;2022-11-20T01:02:17;-7.41;99.99
65573;SHT30;52214;50.940;13.996;2022-11-20T01:04:42;-7.39;99.99
65573;SHT30;52214;50.940;13.996;2022-11-20T01:07:08;-7.46;99.99
65573;SHT30;52214;50.940;13.996;2022-11-20T01:09:34;-7.47;99.99
65573;SHT30;52214;50.940;13.996;2022-11-20T01:11:59;-7.57;99.99
65573;SHT30;52214;50.940;13.996;2022-11-20T01:14:25;-7.57;99.99
65573;SHT30;52214;50.940;13.996;2022-11-20T01:16:51;-7.44;99.99
65573;SHT30;52214;50.940;13.996;2022-11-20T01:19:20;-7.37;99.99
65573;SHT30;52214;50.940;13.996;2022-11-20T01:21:49;-7.37;99.99
65573;SHT30;52214;50.940;13.996;2022-11-20T01:24:17;-7.37;99.99
65573;SHT30;52214;50.940;13.996;2022-11-20T01:26:44;-7.23;99.99
65573;SHT30;52214;50.940;13.996;2022-11-20T01:29:24;-7.30;99.99
65573;SHT30;52214;50.940;13.996;2022-11-20T01:31:50;-7.39;99.99
65573;SHT30;52214;50.940;13.996;2022-11-20T01:34:19;-7.37;99.99
65573;SHT30;52214;50.940;13.996;2022-11-20T01:36:47;-7.44;99.99
65573;SHT30;52214;50.940;13.996;2022-11-20T01:39:16;-7.27;99.99
65573;SHT30;52214;50.940;13.996;2022-11-20T01:41:43;-7.24;99.99
65573;SHT30;52214;50.940;13.996;2022-11-20T01:45:00;-7.27;99.99
65573;SHT30;52214;50.940;13.996;2022-11-20T01:50:15;-7.11;99.99
65573;SHT30;52214;50.940;13.996;2022-11-20T01:52:56;-6.91;99.99
65573;SHT30;52214;50.940;13.996;2022-11-20T01:55:28;-6.96;99.99
65573;SHT30;52214;50.940;13.996;2022-11-20T01:57:55;-6.96;99.99
65573;SHT30;52214;50.940;13.996;2022-11-20T02:00:21;-6.85;99.99
65573;SHT30;52214;50.940;13.996;2022-11-20T02:03:22;-6.78;99.99
65573;SHT30;52214;50.940;13.996;2022-11-20T02:08:36;-6.81;99.99
65573;SHT30;52214;50.940;13.996;2022-11-20T02:11:02;-6.94;99.99
65573;SHT30;52214;50.940;13.996;2022-11-20T02:13:28;-7.02;99.99
65573;SHT30;52214;50.940;13.996;2022-11-20T02:18:40;-6.89;99.99
65573;SHT30;52214;50.940;13.996;2022-11-20T02:21:13;-7.02;99.99
65573;SHT30;52214;50.940;13.996;2022-11-20T02:24:13;-6.96;99.99
65573;SHT30;52214;50.940;13.996;2022-11-20T02:27:00;-6.98;99.99
65573;SHT30;52214;50.940;13.996;2022-11-20T02:32:40;-7.27;99.99
65573;SHT30;52214;50.940;13.996;2022-11-20T02:35:38;-7.29;99.99
65573;SHT30;52214;50.940;13.996;2022-11-20T02:38:01;-7.48;99.99
65573;SHT30;52214;50.940;13.996;2022-11-20T02:40:27;-7.48;99.99
65573;SHT30;52214;50.940;13.996;2022-11-20T02:42:56;-7.33;99.99
65573;SHT30;52214;50.940;13.996;2022-11-20T02:45:23;-7.36;99.99
65573;SHT30;52214;50.940;13.996;2022-11-20T02:47:49;-7.39;99.99
65573;SHT30;52214;50.940;13.996;2022-11-20T02:50:15;-7.39;99.99
65573;SHT30;52214;50.940;13.996;2022-11-20T02:52:41;-7.40;99.99
65573;SHT30;52214;50.940;13.996;2022-11-20T02:55:07;-7.40;99.99
65573;SHT30;52214;50.940;13.996;2022-11-20T02:57:32;-7.34;99.99
65573;SHT30;52214;50.940;13.996;2022-11-20T02:59:58;-7.46;99.99
65573;SHT30;52214;50.940;13.996;2022-11-20T03:02:23;-7.47;99.99
65573;SHT30;52214;50.940;13.996;2022-11-20T03:04:49;-7.50;99.99
65573;SHT30;52214;50.940;13.996;2022-11-20T03:07:14;-7.46;99.99
65573;SHT30;52214;50.940;13.996;2022-11-20T03:09:40;-7.41;99.99
65573;SHT30;52214;50.940;13.996;2022-11-20T03:12:05;-7.55;99.99
65573;SHT30;52214;50.940;13.996;2022-11-20T03:14:31;-7.36;99.99
65573;SHT30;52214;50.940;13.996;2022-11-20T03:16:56;-7.50;99.99
65573;SHT30;52214;50.940;13.996;2022-11-20T03:19:22;-7.51;99.99
65573;SHT30;52214;50.940;13.996;2022-11-20T03:21:48;-7.48;99.99
65573;SHT30;52214;50.940;13.996;2022-11-20T03:24:14;-7.44;99.99
65573;SHT30;52214;50.940;13.996;2022-11-20T03:26:40;-7.52;99.99
65573;SHT30;52214;50.940;13.996;2022-11-20T03:29:05;-7.62;99.99
65573;SHT30;52214;50.940;13.996;2022-11-20T03:31:36;-7.73;99.99
65573;SHT30;52214;50.940;13.996;2022-11-20T03:34:03;-7.75;99.99
65573;SHT30;52214;50.940;13.996;2022-11-20T03:36:30;-7.81;99.99
65573;SHT30;52214;50.940;13.996;2022-11-20T03:38:56;-7.94;99.99
65573;SHT30;52214;50.940;13.996;2022-11-20T03:41:27;-7.75;99.99
65573;SHT30;52214;50.940;13.996;2022-11-20T03:43:55;-7.62;99.99
65573;SHT30;52214;50.940;13.996;2022-11-20T03:46:22;-7.64;99.99
65573;SHT30;52214;50.940;13.996;2022-11-20T03:48:48;-7.51;99.99
65573;SHT30;52214;50.940;13.996;2022-11-20T03:51:22;-7.44;99.99
65573;SHT30;52214;50.940;13.996;2022-11-20T03:53:49;-7.37;99.99
65573;SHT30;52214;50.940;13.996;2022-11-20T03:56:17;-7.47;99.99
65573;SHT30;52214;50.940;13.996;2022-11-20T03:58:43;-7.58;99.99
65573;SHT30;52214;50.940;13.996;2022-11-20T04:01:14;-7.58;99.99
65573;SHT30;52214;50.940;13.996;2022-11-20T04:03:41;-7.48;99.99
65573;SHT30;52214;50.940;13.996;2022-11-20T04:06:16;-7.52;99.99
65573;SHT30;52214;50.940;13.996;2022-11-20T04:08:42;-7.39;99.99
65573;SHT30;52214;50.940;13.996;2022-11-20T04:11:19;-7.27;99.99
65573;SHT30;52214;50.940;13.996;2022-11-20T04:13:50;-7.23;99.99
65573;SHT30;52214;50.940;13.996;2022-11-20T04:16:17;-7.26;99.99
65573;SHT30;52214;50.940;13.996;2022-11-20T04:18:43;-7.41;99.99
65573;SHT30;52214;50.940;13.996;2022-11-20T04:21:09;-7.22;99.99
65573;SHT30;52214;50.940;13.996;2022-11-20T04:23:34;-7.37;99.99
65573;SHT30;52214;50.940;13.996;2022-11-20T04:26:05;-7.19;99.99
65573;SHT30;52214;50.940;13.996;2022-11-20T04:28:30;-7.31;99.99
65573;SHT30;52214;50.940;13.996;2022-11-20T04:31:07;-7.39;99.99
65573;SHT30;52214;50.940;13.996;2022-11-20T04:33:34;-7.23;99.99
65573;SHT30;52214;50.940;13.996;2022-11-20T04:36:05;-7.19;99.99
65573;SHT30;52214;50.940;13.996;2022-11-20T04:38:32;-7.34;99.99
65573;SHT30;52214;50.940;13.996;2022-11-20T04:40:59;-7.27;99.99
65573;SHT30;52214;50.940;13.996;2022-11-20T04:43:25;-7.30;99.99
65573;SHT30;52214;50.940;13.996;2022-11-20T04:45:52;-7.31;99.99
65573;SHT30;52214;50.940;13.996;2022-11-20T04:48:18;-7.37;99.99
65573;SHT30;52214;50.940;13.996;2022-11-20T04:50:43;-7.37;99.99
65573;SHT30;52214;50.940;13.996;2022-11-20T04:53:09;-7.40;99.99
65573;SHT30;52214;50.940;13.996;2022-11-20T04:55:34;-7.34;99.99
65573;SHT30;52214;50.940;13.996;2022-11-20T04:58:00;-7.37;99.99
65573;SHT30;52214;50.940;13.996;2022-11-20T05:00:25;-7.23;99.99
65573;SHT30;52214;50.940;13.996;2022-11-20T05:02:51;-7.31;99.99
65573;SHT30;52214;50.940;13.996;2022-11-20T05:05:16;-7.26;99.99
65573;SHT30;52214;50.940;13.996;2022-11-20T05:07:42;-7.16;99.99
65573;SHT30;52214;50.940;13.996;2022-11-20T05:10:08;-7.20;99.99
65573;SHT30;52214;50.940;13.996;2022-11-20T05:12:33;-7.24;99.99
65573;SHT30;52214;50.940;13.996;2022-11-20T05:14:59;-7.37;99.99
65573;SHT30;52214;50.940;13.996;2022-11-20T05:17:24;-7.29;99.99
65573;SHT30;52214;50.940;13.996;2022-11-20T05:22:51;-7.48;99.99
65573;SHT30;52214;50.940;13.996;2022-11-20T05:25:17;-7.50;99.99
65573;SHT30;52214;50.940;13.996;2022-11-20T05:27:42;-7.51;99.99
65573;SHT30;52214;50.940;13.996;2022-11-20T05:30:08;-7.51;99.99
65573;SHT30;52214;50.940;13.996;2022-11-20T05:32:34;-7.48;99.99
65573;SHT30;52214;50.940;13.996;2022-11-20T05:34:59;-7.55;99.99
65573;SHT30;52214;50.940;13.996;2022-11-20T05:37:25;-7.61;99.99
65573;SHT30;52214;50.940;13.996;2022-11-20T05:39:50;-7.74;99.99
65573;SHT30;52214;50.940;13.996;2022-11-20T05:42:16;-7.85;99.99
65573;SHT30;52214;50.940;13.996;2022-11-20T05:44:58;-7.78;99.99
65573;SHT30;52214;50.940;13.996;2022-11-20T05:49:55;-7.75;99.99
65573;SHT30;52214;50.940;13.996;2022-11-20T05:52:21;-7.65;99.99
65573;SHT30;52214;50.940;13.996;2022-11-20T05:54:46;-7.68;99.99
65573;SHT30;52214;50.940;13.996;2022-11-20T05:57:12;-7.61;99.99
65573;SHT30;52214;50.940;13.996;2022-11-20T05:59:37;-7.54;99.99
65573;SHT30;52214;50.940;13.996;2022-11-20T06:02:03;-7.51;99.99
65573;SHT30;52214;50.940;13.996;2022-11-20T06:04:28;-7.47;99.99
65573;SHT30;52214;50.940;13.996;2022-11-20T06:06:54;-7.46;99.99
65573;SHT30;52214;50.940;13.996;2022-11-20T06:09:19;-7.50;99.99
65573;SHT30;52214;50.940;13.996;2022-11-20T06:11:45;-7.47;99.99
65573;SHT30;52214;50.940;13.996;2022-11-20T06:14:10;-7.48;99.99
65573;SHT30;52214;50.940;13.996;2022-11-20T06:16:36;-7.30;99.99
65573;SHT30;52214;50.940;13.996;2022-11-20T06:19:01;-7.50;99.99
65573;SHT30;52214;50.940;13.996;2022-11-20T06:21:27;-7.46;99.99
65573;SHT30;52214;50.940;13.996;2022-11-20T06:23:53;-7.39;99.99
65573;SHT30;52214;50.940;13.996;2022-11-20T06:26:24;-7.39;99.99
65573;SHT30;52214;50.940;13.996;2022-11-20T06:28:52;-7.46;99.99
65573;SHT30;52214;50.940;13.996;2022-11-20T06:31:20;-7.57;99.99
65573;SHT30;52214;50.940;13.996;2022-11-20T06:33:46;-7.59;99.99
65573;SHT30;52214;50.940;13.996;2022-11-20T06:36:13;-7.61;99.99
65573;SHT30;52214;50.940;13.996;2022-11-20T06:38:40;-7.51;99.99
65573;SHT30;52214;50.940;13.996;2022-11-20T06:41:08;-7.59;99.99
65573;SHT30;52214;50.940;13.996;2022-11-20T06:43:35;-7.64;99.99
65573;SHT30;52214;50.940;13.996;2022-11-20T06:46:01;-7.59;99.99
65573;SHT30;52214;50.940;13.996;2022-11-20T06:48:27;-7.58;99.99
65573;SHT30;52214;50.940;13.996;2022-11-20T06:50:53;-7.47;99.99
65573;SHT30;52214;50.940;13.996;2022-11-20T06:53:18;-7.52;99.99
65573;SHT30;52214;50.940;13.996;2022-11-20T06:55:47;-7.57;99.99
65573;SHT30;52214;50.940;13.996;2022-11-20T06:58:14;-7.51;99.99
65573;SHT30;52214;50.940;13.996;2022-11-20T07:00:40;-7.40;99.99
65573;SHT30;52214;50.940;13.996;2022-11-20T07:03:08;-7.27;99.99
65573;SHT30;52214;50.940;13.996;2022-11-20T07:05:35;-7.23;99.99
65573;SHT30;52214;50.940;13.996;2022-11-20T07:08:02;-7.18;99.99
65573;SHT30;52214;50.940;13.996;2022-11-20T07:10:27;-7.18;99.99
65573;SHT30;52214;50.940;13.996;2022-11-20T07:12:53;-7.08;99.99
65573;SHT30;52214;50.940;13.996;2022-11-20T07:15:21;-6.98;99.99
65573;SHT30;52214;50.940;13.996;2022-11-20T07:17:47;-6.75;99.99
65573;SHT30;52214;50.940;13.996;2022-11-20T07:20:13;-6.65;99.99
65573;SHT30;52214;50.940;13.996;2022-11-20T07:22:39;-6.58;99.99
65573;SHT30;52214;50.940;13.996;2022-11-20T07:25:05;-6.41;99.99
65573;SHT30;52214;50.940;13.996;2022-11-20T07:27:31;-6.33;99.99
65573;SHT30;52214;50.940;13.996;2022-11-20T07:29:56;-6.26;99.99
65573;SHT30;52214;50.940;13.996;2022-11-20T07:32:22;-6.13;99.99
65573;SHT30;52214;50.940;13.996;2022-11-20T07:34:48;-5.97;99.99
65573;SHT30;52214;50.940;13.996;2022-11-20T07:37:14;-5.91;99.99
65573;SHT30;52214;50.940;13.996;2022-11-20T07:39:39;-5.74;99.99
65573;SHT30;52214;50.940;13.996;2022-11-20T07:42:08;-5.56;99.99
65573;SHT30;52214;50.940;13.996;2022-11-20T07:44:34;-5.42;99.99
65573;SHT30;52214;50.940;13.996;2022-11-20T07:47:00;-5.39;99.99
65573;SHT30;52214;50.940;13.996;2022-11-20T07:49:25;-5.36;99.99
65573;SHT30;52214;50.940;13.996;2022-11-20T07:51:51;-5.25;99.99
65573;SHT30;52214;50.940;13.996;2022-11-20T07:54:20;-5.12;99.99
65573;SHT30;52214;50.940;13.996;2022-11-20T07:56:47;-4.91;99.99
65573;SHT30;52214;50.940;13.996;2022-11-20T07:59:12;-4.85;99.99
65573;SHT30;52214;50.940;13.996;2022-11-20T08:01:39;-4.70;99.99
65573;SHT30;52214;50.940;13.996;2022-11-20T08:04:05;-4.67;99.99
65573;SHT30;52214;50.940;13.996;2022-11-20T08:06:31;-4.66;99.99
65573;SHT30;52214;50.940;13.996;2022-11-20T08:08:56;-4.59;99.99
65573;SHT30;52214;50.940;13.996;2022-11-20T08:11:22;-4.52;99.99
65573;SHT30;52214;50.940;13.996;2022-11-20T08:14:06;-4.35;99.99
65573;SHT30;52214;50.940;13.996;2022-11-20T08:16:40;-4.29;99.99
65573;SHT30;52214;50.940;13.996;2022-11-20T08:19:07;-4.19;99.99
65573;SHT30;52214;50.940;13.996;2022-11-20T08:21:32;-4.07;99.99
65573;SHT30;52214;50.940;13.996;2022-11-20T08:23:58;-3.94;99.99
65573;SHT30;52214;50.940;13.996;2022-11-20T08:26:24;-3.83;99.99
65573;SHT30;52214;50.940;13.996;2022-11-20T08:28:53;-3.69;99.99
65573;SHT30;52214;50.940;13.996;2022-11-20T08:31:20;-3.58;99.99
65573;SHT30;52214;50.940;13.996;2022-11-20T08:33:45;-3.56;99.99
65573;SHT30;52214;50.940;13.996;2022-11-20T08:36:11;-3.25;99.99
65573;SHT30;52214;50.940;13.996;2022-11-20T08:38:37;-3.21;99.99
65573;SHT30;52214;50.940;13.996;2022-11-20T08:41:04;-3.03;99.99
65573;SHT30;52214;50.940;13.996;2022-11-20T08:43:48;-2.81;99.99
65573;SHT30;52214;50.940;13.996;2022-11-20T08:46:14;-2.88;99.99
65573;SHT30;52214;50.940;13.996;2022-11-20T08:48:40;-2.81;99.99
65573;SHT30;52214;50.940;13.996;2022-11-20T08:51:05;-2.75;99.99
65573;SHT30;52214;50.940;13.996;2022-11-20T08:53:31;-2.55;99.99
65573;SHT30;52214;50.940;13.996;2022-11-20T08:55:57;-2.53;99.71
65573;SHT30;52214;50.940;13.996;2022-11-20T08:58:24;-2.34;99.46
65573;SHT30;52214;50.940;13.996;2022-11-20T09:00:50;-2.24;97.79
65573;SHT30;52214;50.940;13.996;2022-11-20T09:03:15;-1.97;99.91
65573;SHT30;52214;50.940;13.996;2022-11-20T09:05:41;-1.73;99.65
65573;SHT30;52214;50.940;13.996;2022-11-20T09:08:08;-1.45;98.77
65573;SHT30;52214;50.940;13.996;2022-11-20T09:10:33;-1.40;95.61
65573;SHT30;52214;50.940;13.996;2022-11-20T09:12:59;-1.10;98.32
65573;SHT30;52214;50.940;13.996;2022-11-20T09:15:25;-0.39;99.53
65573;SHT30;52214;50.940;13.996;2022-11-20T09:17:55;-0.41;96.98
65573;SHT30;52214;50.940;13.996;2022-11-20T09:20:21;-0.55;94.16
65573;SHT30;52214;50.940;13.996;2022-11-20T09:22:47;-0.61;94.99
65573;SHT30;52214;50.940;13.996;2022-11-20T09:25:13;-0.76;95.53
65573;SHT30;52214;50.940;13.996;2022-11-20T09:27:39;-1.00;94.18
65573;SHT30;52214;50.940;13.996;2022-11-20T09:30:07;-0.77;96.38
65573;SHT30;52214;50.940;13.996;2022-11-20T09:32:32;-0.85;95.46
65573;SHT30;52214;50.940;13.996;2022-11-20T09:34:58;-0.83;95.64
65573;SHT30;52214;50.940;13.996;2022-11-20T09:37:23;-0.80;95.35
65573;SHT30;52214;50.940;13.996;2022-11-20T09:39:49;-0.89;96.66
65573;SHT30;52214;50.940;13.996;2022-11-20T09:42:41;-0.64;93.90
65573;SHT30;52214;50.940;13.996;2022-11-20T09:47:48;-0.80;94.52
65573;SHT30;52214;50.940;13.996;2022-11-20T09:55:11;-0.72;95.40
65573;SHT30;52214;50.940;13.996;2022-11-20T09:57:41;-0.75;95.36
65573;SHT30;52214;50.940;13.996;2022-11-20T10:00:13;-0.65;94.97
65573;SHT30;52214;50.940;13.996;2022-11-20T10:02:55;-0.54;94.38
65573;SHT30;52214;50.940;13.996;2022-11-20T10:05:27;-0.42;94.49
65573;SHT30;52214;50.940;13.996;2022-11-20T10:08:18;-0.48;92.50
65573;SHT30;52214;50.940;13.996;2022-11-20T10:14:35;-0.27;93.01
65573;SHT30;52214;50.940;13.996;2022-11-20T10:20:27;-0.14;90.32
65573;SHT30;52214;50.940;13.996;2022-11-20T10:26:05;0.08;91.20
65573;SHT30;52214;50.940;13.996;2022-11-20T10:28:54;0.22;93.70
65573;SHT30;52214;50.940;13.996;2022-11-20T10:31:34;0.22;92.51
65573;SHT30;52214;50.940;13.996;2022-11-20T10:34:07;0.24;93.15
65573;SHT30;52214;50.940;13.996;2022-11-20T10:36:39;0.49;90.00
65573;SHT30;52214;50.940;13.996;2022-11-20T10:39:18;0.77;91.34
65573;SHT30;52214;50.940;13.996;2022-11-20T10:41:49;1.13;88.78
65573;SHT30;52214;50.940;13.996;2022-11-20T10:44:26;1.70;88.77
65573;SHT30;52214;50.940;13.996;2022-11-20T10:47:18;1.96;84.14
65573;SHT30;52214;50.940;13.996;2022-11-20T10:49:47;2.03;82.15
65573;SHT30;52214;50.940;13.996;2022-11-20T10:52:42;2.18;78.40
65573;SHT30;52214;50.940;13.996;2022-11-20T11:00:22;4.70;71.00
65573;SHT30;52214;50.940;13.996;2022-11-20T11:02:50;4.11;72.05
65573;SHT30;52214;50.940;13.996;2022-11-20T11:05:35;4.84;69.82
65573;SHT30;52214;50.940;13.996;2022-11-20T11:08:02;3.90;71.67
65573;SHT30;52214;50.940;13.996;2022-11-20T11:10:47;4.94;71.15
65573;SHT30;52214;50.940;13.996;2022-11-20T11:13:27;3.70;70.50
65573;SHT30;52214;50.940;13.996;2022-11-20T11:15:54;4.59;68.49
65573;SHT30;52214;50.940;13.996;2022-11-20T11:20:54;4.04;66.74
65573;SHT30;52214;50.940;13.996;2022-11-20T11:23:34;4.45;73.85
65573;SHT30;52214;50.940;13.996;2022-11-20T11:26:01;4.39;71.17
65573;SHT30;52214;50.940;13.996;2022-11-20T11:28:28;3.87;71.10
65573;SHT30;52214;50.940;13.996;2022-11-20T11:30:55;4.85;68.18
65573;SHT30;52214;50.940;13.996;2022-11-20T11:33:29;4.46;67.65
65573;SHT30;52214;50.940;13.996;2022-11-20T11:36:15;4.46;68.97
65573;SHT30;52214;50.940;13.996;2022-11-20T11:38:43;3.55;71.07
65573;SHT30;52214;50.940;13.996;2022-11-20T11:41:15;3.38;75.43
65573;SHT30;52214;50.940;13.996;2022-11-20T11:43:51;3.09;72.11
65573;SHT30;52214;50.940;13.996;2022-11-20T11:46:36;3.28;73.86
65573;SHT30;52214;50.940;13.996;2022-11-20T11:52:03;1.83;80.78
65573;SHT30;52214;50.940;13.996;2022-11-20T11:54:55;1.87;79.07
65573;SHT30;52214;50.940;13.996;2022-11-20T11:57:45;1.76;81.68
65573;SHT30;52214;50.940;13.996;2022-11-20T12:00:20;2.63;77.34
65573;SHT30;52214;50.940;13.996;2022-11-20T12:13:55;1.62;79.01
65573;SHT30;52214;50.940;13.996;2022-11-20T12:16:24;1.30;77.88
65573;SHT30;52214;50.940;13.996;2022-11-20T12:18:51;1.34;79.25
65573;SHT30;52214;50.940;13.996;2022-11-20T12:21:20;1.39;82.33
65573;SHT30;52214;50.940;13.996;2022-11-20T12:35:00;1.45;81.18
65573;SHT30;52214;50.940;13.996;2022-11-20T12:43:48;1.35;79.34
65573;SHT30;52214;50.940;13.996;2022-11-20T12:46:44;1.72;80.30
65573;SHT30;52214;50.940;13.996;2022-11-20T12:49:38;2.11;80.13
65573;SHT30;52214;50.940;13.996;2022-11-20T12:52:37;2.01;80.73
65573;SHT30;52214;50.940;13.996;2022-11-20T12:58:12;1.67;82.04
65573;SHT30;52214;50.940;13.996;2022-11-20T13:01:16;1.80;82.52
65573;SHT30;52214;50.940;13.996;2022-11-20T13:07:26;0.70;85.98
65573;SHT30;52214;50.940;13.996;2022-11-20T13:10:16;0.65;86.12
65573;SHT30;52214;50.940;13.996;2022-11-20T13:13:11;0.56;86.90
65573;SHT30;52214;50.940;13.996;2022-11-20T13:16:04;0.52;87.48
65573;SHT30;52214;50.940;13.996;2022-11-20T13:18:49;0.32;88.31
65573;SHT30;52214;50.940;13.996;2022-11-20T13:21:43;0.21;88.15
65573;SHT30;52214;50.940;13.996;2022-11-20T13:24:30;0.08;90.07
65573;SHT30;52214;50.940;13.996;2022-11-20T13:30:00;0.21;88.22
65573;SHT30;52214;50.940;13.996;2022-11-20T13:32:48;0.18;87.70
65573;SHT30;52214;50.940;13.996;2022-11-20T13:35:24;0.28;87.61
65573;SHT30;52214;50.940;13.996;2022-11-20T13:38:10;0.22;88.86
65573;SHT30;52214;50.940;13.996;2022-11-20T13:40:38;0.24;88.15
65573;SHT30;52214;50.940;13.996;2022-11-20T13:43:20;0.18;88.97
65573;SHT30;52214;50.940;13.996;2022-11-20T13:46:01;0.31;88.11
65573;SHT30;52214;50.940;13.996;2022-11-20T13:48:43;0.25;88.47
65573;SHT30;52214;50.940;13.996;2022-11-20T13:51:40;0.26;89.04
65573;SHT30;52214;50.940;13.996;2022-11-20T13:59:57;0.40;89.56
65573;SHT30;52214;50.940;13.996;2022-11-20T14:02:26;0.38;90.57
65573;SHT30;52214;50.940;13.996;2022-11-20T14:04:54;0.29;91.26
65573;SHT30;52214;50.940;13.996;2022-11-20T14:07:25;0.42;90.34
65573;SHT30;52214;50.940;13.996;2022-11-20T14:09:54;0.35;90.60
65573;SHT30;52214;50.940;13.996;2022-11-20T14:12:23;0.42;90.17
65573;SHT30;52214;50.940;13.996;2022-11-20T14:14:53;0.42;90.55
65573;SHT30;52214;50.940;13.996;2022-11-20T14:17:30;0.48;89.25
65573;SHT30;52214;50.940;13.996;2022-11-20T14:20:02;0.45;90.22
65573;SHT30;52214;50.940;13.996;2022-11-20T14:22:28;0.45;89.82
65573;SHT30;52214;50.940;13.996;2022-11-20T14:27:42;0.51;91.47
65573;SHT30;52214;50.940;13.996;2022-11-20T14:30:16;0.31;90.60
65573;SHT30;52214;50.940;13.996;2022-11-20T14:32:43;0.28;90.92
65573;SHT30;52214;50.940;13.996;2022-11-20T14:35:14;0.19;91.62
65573;SHT30;52214;50.940;13.996;2022-11-20T14:37:44;0.14;92.26
65573;SHT30;52214;50.940;13.996;2022-11-20T14:40:30;0.11;93.40
65573;SHT30;52214;50.940;13.996;2022-11-20T14:42:57;0.08;93.87
65573;SHT30;52214;50.940;13.996;2022-11-20T14:45:24;0.06;93.39
65573;SHT30;52214;50.940;13.996;2022-11-20T14:47:55;0.04;94.05
65573;SHT30;52214;50.940;13.996;2022-11-20T14:50:26;0.06;93.83
65573;SHT30;52214;50.940;13.996;2022-11-20T14:53:00;0.01;93.16
65573;SHT30;52214;50.940;13.996;2022-11-20T14:55:34;0.00;93.34
65573;SHT30;52214;50.940;13.996;2022-11-20T14:58:20;0.03;93.91
65573;SHT30;52214;50.940;13.996;2022-11-20T15:00:56;-0.03;93.68
65573;SHT30;52214;50.940;13.996;2022-11-20T15:03:22;-0.03;93.75
65573;SHT30;52214;50.940;13.996;2022-11-20T15:05:50;0.00;93.00
65573;SHT30;52214;50.940;13.996;2022-11-20T15:08:16;-0.04;92.95
65573;SHT30;52214;50.940;13.996;2022-11-20T15:10:47;0.08;93.63
65573;SHT30;52214;50.940;13.996;2022-11-20T15:13:17;-0.10;93.52
65573;SHT30;52214;50.940;13.996;2022-11-20T15:15:53;-0.17;94.00
65573;SHT30;52214;50.940;13.996;2022-11-20T15:20:50;-0.14;93.91
65573;SHT30;52214;50.940;13.996;2022-11-20T15:23:18;-0.22;93.27
65573;SHT30;52214;50.940;13.996;2022-11-20T15:25:44;-0.22;93.20
65573;SHT30;52214;50.940;13.996;2022-11-20T15:28:29;-0.30;92.81
65573;SHT30;52214;50.940;13.996;2022-11-20T15:30:55;-0.41;94.39
65573;SHT30;52214;50.940;13.996;2022-11-20T15:33:21;-0.51;95.44
65573;SHT30;52214;50.940;13.996;2022-11-20T15:35:47;-0.61;95.77
65573;SHT30;52214;50.940;13.996;2022-11-20T15:38:12;-0.70;95.43
65573;SHT30;52214;50.940;13.996;2022-11-20T15:40:38;-0.80;95.56
65573;SHT30;52214;50.940;13.996;2022-11-20T15:43:04;-0.93;96.44
65573;SHT30;52214;50.940;13.996;2022-11-20T15:45:46;-0.96;97.20
65573;SHT30;52214;50.940;13.996;2022-11-20T15:48:16;-0.96;97.39
65573;SHT30;52214;50.940;13.996;2022-11-20T15:53:41;-1.31;98.25
65573;SHT30;52214;50.940;13.996;2022-11-20T15:56:11;-1.58;98.70
65573;SHT30;52214;50.940;13.996;2022-11-20T15:58:38;-1.70;99.38
65573;SHT30;52214;50.940;13.996;2022-11-20T16:01:04;-1.66;99.70
65573;SHT30;52214;50.940;13.996;2022-11-20T16:03:29;-1.94;99.81
65573;SHT30;52214;50.940;13.996;2022-11-20T16:05:55;-2.03;99.99
65573;SHT30;52214;50.940;13.996;2022-11-20T16:08:20;-1.94;99.99
65573;SHT30;52214;50.940;13.996;2022-11-20T16:10:46;-2.18;99.99
65573;SHT30;52214;50.940;13.996;2022-11-20T16:13:14;-2.28;99.99
65573;SHT30;52214;50.940;13.996;2022-11-20T16:16:01;-2.30;99.99
65573;SHT30;52214;50.940;13.996;2022-11-20T16:18:30;-2.46;99.99
65573;SHT30;52214;50.940;13.996;2022-11-20T16:20:56;-2.49;99.99
65573;SHT30;52214;50.940;13.996;2022-11-20T16:23:22;-2.49;99.99
65573;SHT30;52214;50.940;13.996;2022-11-20T16:25:48;-2.59;99.99
65573;SHT30;52214;50.940;13.996;2022-11-20T16:28:14;-2.73;99.99
65573;SHT30;52214;50.940;13.996;2022-11-20T16:30:39;-2.86;99.99
65573;SHT30;52214;50.940;13.996;2022-11-20T16:33:10;-2.96;99.99
65573;SHT30;52214;50.940;13.996;2022-11-20T16:35:37;-3.12;99.99
65573;SHT30;52214;50.940;13.996;2022-11-20T16:38:02;-3.12;99.99
65573;SHT30;52214;50.940;13.996;2022-11-20T16:40:28;-3.03;99.99
65573;SHT30;52214;50.940;13.996;2022-11-20T16:42:54;-3.12;99.99
65573;SHT30;52214;50.940;13.996;2022-11-20T16:45:20;-3.25;99.99
65573;SHT30;52214;50.940;13.996;2022-11-20T16:47:45;-3.11;99.99
65573;SHT30;52214;50.940;13.996;2022-11-20T16:50:11;-3.15;99.99
65573;SHT30;52214;50.940;13.996;2022-11-20T16:52:36;-3.00;99.99
65573;SHT30;52214;50.940;13.996;2022-11-20T16:55:02;-3.16;99.99
65573;SHT30;52214;50.940;13.996;2022-11-20T16:57:29;-3.35;99.99
65573;SHT30;52214;50.940;13.996;2022-11-20T16:59:55;-3.30;99.99
65573;SHT30;52214;50.940;13.996;2022-11-20T17:02:21;-3.42;99.99
65573;SHT30;52214;50.940;13.996;2022-11-20T17:04:47;-3.34;99.99
65573;SHT30;52214;50.940;13.996;2022-11-20T17:07:12;-3.21;99.99
65573;SHT30;52214;50.940;13.996;2022-11-20T17:09:38;-3.22;99.99
65573;SHT30;52214;50.940;13.996;2022-11-20T17:12:04;-3.31;99.99
65573;SHT30;52214;50.940;13.996;2022-11-20T17:14:30;-3.49;99.99